Time;durP1;ratioP1;P1;durP2;ratioP2;P2;SDS_P1;SDS_P2;PMS_P1;PMS_P2;Temp;Humidity;BMP_temperature;BMP_pressure;BME280_temperature;BME280_humidity;BME280_pressure;Samples;Min_cycle;Max_cycle;Signal;HPM_P1;HPM_P2
2023/03/10 00:01:13;;;;;;;11.07;7.30;;;;;;;13.00;71.41;94120.03;5052318;28;20855;-73
2023/03/10 00:03:40;;;;;;;10.77;6.77;;;;;;;12.97;71.80;94123.81;5052248;28;20877;-74
2023/03/10 00:06:08;;;;;;;11.00;6.77;;;;;;;12.96;71.65;94127.44;5051474;28;20447;-73
2023/03/10 00:08:37;;;;;;;17.60;6.27;;;;;;;12.93;71.85;94121.69;5051949;28;20507;-73
2023/03/10 00:11:03;;;;;;;7.57;5.60;;;;;;;12.91;71.48;94126.28;5052374;28;20840;-73
2023/03/10 00:13:30;;;;;;;12.73;6.00;;;;;;;12.89;71.42;94125.63;5051964;28;20433;-73
2023/03/10 00:15:57;;;;;;;13.50;6.07;;;;;;;12.86;71.93;94131.22;5051879;28;20482;-73
2023/03/10 00:18:24;;;;;;;8.33;5.73;;;;;;;12.80;71.96;94132.72;5052065;28;20439;-73
2023/03/10 00:20:52;;;;;;;14.60;7.07;;;;;;;12.70;72.05;94132.00;5052217;28;20926;-73
2023/03/10 00:23:19;;;;;;;4.93;4.43;;;;;;;12.67;71.92;94134.97;5052057;28;20484;-73
2023/03/10 00:25:53;;;;;;;13.33;4.90;;;;;;;12.59;72.33;94125.25;5051984;28;20478;-74
2023/03/10 00:28:20;;;;;;;9.20;5.37;;;;;;;12.36;74.13;94122.38;5052347;28;20441;-74
2023/03/10 00:30:57;;;;;;;12.87;6.87;;;;;;;12.34;74.37;94134.88;5051870;28;20441;-73
2023/03/10 00:33:24;;;;;;;10.20;6.20;;;;;;;12.28;75.34;94130.25;5052245;28;20457;-74
2023/03/10 00:35:59;;;;;;;10.27;6.83;;;;;;;12.24;74.51;94123.66;5051727;28;20492;-74
2023/03/10 00:38:27;;;;;;;11.70;5.87;;;;;;;12.16;74.74;94118.38;5052060;28;20597;-73
2023/03/10 00:40:59;;;;;;;13.77;6.40;;;;;;;12.15;75.95;94119.38;5053752;28;20780;-73
2023/03/10 00:43:26;;;;;;;7.57;5.20;;;;;;;12.17;75.64;94120.03;5055510;28;20454;-74
2023/03/10 00:45:53;;;;;;;11.13;5.80;;;;;;;12.15;75.62;94124.63;5055203;28;20449;-73
2023/03/10 00:48:20;;;;;;;6.73;4.87;;;;;;;12.18;75.21;94118.22;5036576;28;20496;-73
2023/03/10 00:50:47;;;;;;;5.00;4.40;;;;;;;12.19;74.77;94119.88;5055321;28;20454;-73
2023/03/10 00:53:14;;;;;;;8.17;4.90;;;;;;;12.24;74.70;94123.66;5055349;28;20508;-73
2023/03/10 00:55:41;;;;;;;7.50;5.10;;;;;;;12.27;74.75;94118.09;5036020;28;20482;-74
2023/03/10 00:58:09;;;;;;;9.27;5.60;;;;;;;12.24;74.77;94113.16;5055186;28;20532;-73
2023/03/10 01:00:36;;;;;;;5.60;4.33;;;;;;;12.17;74.53;94101.63;5054868;28;21146;-73
2023/03/10 01:03:03;;;;;;;5.30;4.40;;;;;;;12.08;75.58;94102.56;5055074;28;20446;-73
2023/03/10 01:05:30;;;;;;;7.00;5.00;;;;;;;11.99;75.50;94108.78;5054406;28;20511;-73
2023/03/10 01:07:57;;;;;;;5.40;4.20;;;;;;;11.88;75.26;94122.19;5054801;28;20450;-71
2023/03/10 01:10:23;;;;;;;5.93;4.33;;;;;;;11.75;76.63;94115.53;5054892;28;20495;-73
2023/03/10 01:12:50;;;;;;;5.67;4.30;;;;;;;11.69;77.11;94117.97;5035854;28;20453;-74
2023/03/10 01:15:18;;;;;;;9.20;4.93;;;;;;;11.64;77.96;94121.06;5054683;28;20438;-74
2023/03/10 01:17:45;;;;;;;6.73;5.00;;;;;;;11.63;78.02;94121.22;5054646;28;20972;-73
2023/03/10 01:20:15;;;;;;;6.23;4.60;;;;;;;11.64;77.72;94123.69;5055141;28;20441;-74
2023/03/10 01:22:42;;;;;;;8.10;5.20;;;;;;;11.68;78.00;94105.78;5054938;28;20463;-72
2023/03/10 01:25:13;;;;;;;6.13;4.60;;;;;;;11.69;77.99;94096.94;5054589;28;20477;-73
2023/03/10 01:27:40;;;;;;;11.73;5.60;;;;;;;11.70;78.39;94104.66;5054434;28;20503;-74
2023/03/10 01:30:08;;;;;;;7.03;5.00;;;;;;;11.64;78.67;94105.28;5054865;28;20503;-74
2023/03/10 01:32:37;;;;;;;6.43;4.70;;;;;;;11.66;78.42;94108.59;5054564;28;20449;-73
2023/03/10 01:35:04;;;;;;;13.90;5.40;;;;;;;11.68;78.40;94109.25;5054574;28;20563;-73
2023/03/10 01:37:32;;;;;;;6.57;5.00;;;;;;;11.71;79.06;94106.31;5054543;28;20842;-73
2023/03/10 01:39:58;;;;;;;6.90;4.63;;;;;;;11.69;78.74;94105.63;5054239;28;20939;-73
2023/03/10 01:42:25;;;;;;;8.77;4.70;;;;;;;11.67;78.53;94106.78;5035653;28;20449;-74
2023/03/10 01:45:07;;;;;;;4.80;4.37;;;;;;;11.59;78.33;94097.06;5035521;28;20442;-73
2023/03/10 01:47:35;;;;;;;5.00;4.30;;;;;;;11.66;78.83;94102.50;5054393;28;20454;-73
2023/03/10 01:50:06;;;;;;;9.30;4.73;;;;;;;11.63;78.74;94103.63;5054167;28;20811;-74
2023/03/10 01:52:34;;;;;;;6.67;4.50;;;;;;;11.63;78.48;94108.06;5053890;28;20473;-74
2023/03/10 01:55:06;;;;;;;7.83;4.60;;;;;;;11.57;79.86;94112.16;5053879;28;20446;-72
2023/03/10 01:57:37;;;;;;;6.20;4.37;;;;;;;11.53;80.07;94116.03;5035377;28;20895;-73
2023/03/10 02:00:11;;;;;;;7.57;4.77;;;;;;;11.55;79.20;94121.97;5054187;28;20454;-73
2023/03/10 02:02:42;;;;;;;4.50;3.90;;;;;;;11.57;80.25;94124.47;5054114;28;20499;-74
2023/03/10 02:05:09;;;;;;;4.87;3.90;;;;;;;11.57;79.42;94120.03;5054238;28;20449;-73
2023/03/10 02:07:37;;;;;;;8.43;4.70;;;;;;;11.57;80.09;94122.66;5054088;28;20457;-73
2023/03/10 02:10:04;;;;;;;7.63;4.50;;;;;;;11.58;79.66;94137.44;5053753;28;20453;-73
2023/03/10 02:12:31;;;;;;;7.80;4.37;;;;;;;11.58;79.69;94128.75;5053705;28;20450;-74
2023/03/10 02:14:58;;;;;;;5.40;4.30;;;;;;;11.57;80.01;94120.03;5053551;28;20449;-73
2023/03/10 02:17:26;;;;;;;8.53;3.70;;;;;;;11.55;79.99;94127.22;5053401;28;20489;-73
2023/03/10 02:20:05;;;;;;;6.30;4.00;;;;;;;11.56;80.45;94123.59;5034534;28;20448;-72
2023/03/10 02:22:32;;;;;;;7.10;4.10;;;;;;;11.55;80.44;94121.13;5053703;28;20536;-73
2023/03/10 02:25:07;;;;;;;6.00;3.87;;;;;;;11.53;80.80;94118.66;5053478;28;20453;-73
2023/03/10 02:27:39;;;;;;;4.63;3.80;;;;;;;11.53;80.91;94112.59;5053428;28;20453;-73
2023/03/10 02:30:08;;;;;;;4.77;3.53;;;;;;;11.49;80.01;94112.06;5053126;28;20477;-73
2023/03/10 02:32:39;;;;;;;4.57;4.10;;;;;;;11.49;80.18;94122.59;5053097;28;20932;-73
2023/03/10 02:35:07;;;;;;;6.87;4.60;;;;;;;11.48;81.60;94126.19;5052595;28;20510;-73
2023/03/10 02:37:35;;;;;;;7.23;4.47;;;;;;;11.43;81.37;94115.34;5053112;28;21040;-73
2023/03/10 02:40:05;;;;;;;4.83;4.33;;;;;;;11.35;81.99;94113.47;5053307;28;20510;-73
2023/03/10 02:42:36;;;;;;;5.40;4.07;;;;;;;11.40;81.45;94110.38;5053170;28;20445;-73
2023/03/10 02:45:04;;;;;;;3.87;3.57;;;;;;;11.39;82.42;94114.00;5052865;28;20503;-73
2023/03/10 02:47:30;;;;;;;4.10;3.70;;;;;;;11.39;81.66;94106.94;5053418;28;20803;-74
2023/03/10 02:49:57;;;;;;;5.57;3.87;;;;;;;11.38;81.18;94112.34;5053300;28;20445;-73
2023/03/10 02:52:30;;;;;;;3.57;3.13;;;;;;;11.41;81.97;94115.47;5053199;28;20859;-74
2023/03/10 02:54:57;;;;;;;5.33;4.60;;;;;;;11.46;81.24;94115.00;5052896;28;20445;-74
2023/03/10 02:57:24;;;;;;;6.57;3.70;;;;;;;11.54;81.35;94108.97;5052275;28;20507;-73
2023/03/10 02:59:52;;;;;;;6.10;3.87;;;;;;;11.59;81.18;94109.38;5052019;28;20438;-73
2023/03/10 03:02:19;;;;;;;4.87;3.33;;;;;;;11.55;80.45;94106.19;5051985;28;20445;-74
2023/03/10 03:04:45;;;;;;;5.00;3.60;;;;;;;11.56;80.32;94112.28;5051868;28;20495;-74
2023/03/10 03:07:12;;;;;;;3.80;3.50;;;;;;;11.51;81.19;94096.97;5052778;28;20445;-73
2023/03/10 03:09:39;;;;;;;12.00;7.83;;;;;;;11.43;81.02;94102.19;5052818;28;20479;-73
2023/03/10 03:12:06;;;;;;;15.00;7.63;;;;;;;11.43;81.18;94116.16;5052586;28;20452;-73
2023/03/10 03:14:33;;;;;;;7.43;3.93;;;;;;;11.39;81.50;94108.75;5052812;28;20445;-74
2023/03/10 03:17:01;;;;;;;6.10;3.50;;;;;;;11.38;82.33;94096.59;5052571;28;20494;-74
2023/03/10 03:19:28;;;;;;;3.63;3.23;;;;;;;11.44;82.28;94103.84;5052692;28;20528;-74
2023/03/10 03:21:55;;;;;;;6.20;3.53;;;;;;;11.45;81.97;94108.13;5052523;28;20449;-72
2023/03/10 03:24:22;;;;;;;8.60;3.30;;;;;;;11.46;81.47;94107.97;5052606;28;20446;-74
2023/03/10 03:26:48;;;;;;;4.70;3.03;;;;;;;11.48;82.38;94113.88;5052371;28;20457;-73
2023/03/10 03:29:16;;;;;;;3.30;3.00;;;;;;;11.46;82.07;94107.13;5052679;28;20449;-73
2023/03/10 03:31:43;;;;;;;4.53;3.13;;;;;;;11.46;82.57;94096.63;5052732;28;20511;-74
2023/03/10 03:34:12;;;;;;;3.60;3.00;;;;;;;11.51;81.26;94104.88;5052266;28;20507;-73
2023/03/10 03:36:39;;;;;;;4.13;3.73;;;;;;;11.58;80.77;94105.09;5052175;28;20551;-74
2023/03/10 03:39:06;;;;;;;3.43;2.93;;;;;;;11.59;80.53;94101.47;5052002;28;20457;-73
2023/03/10 03:41:33;;;;;;;7.00;3.90;;;;;;;11.61;81.06;94091.63;5052180;28;20500;-73
2023/03/10 03:44:00;;;;;;;5.17;3.03;;;;;;;11.64;80.87;94096.56;5052417;28;20858;-73
2023/03/10 03:46:27;;;;;;;3.47;3.17;;;;;;;11.65;80.38;94101.69;5052328;28;20445;-71
2023/03/10 03:48:54;;;;;;;5.23;3.80;;;;;;;11.61;80.60;94100.34;5052176;28;20445;-74
2023/03/10 03:51:22;;;;;;;3.80;3.37;;;;;;;11.61;80.89;94102.97;5052005;28;20495;-73
2023/03/10 03:53:49;;;;;;;3.57;3.27;;;;;;;11.63;80.04;94106.25;5051465;28;20441;-74
2023/03/10 03:56:15;;;;;;;4.20;3.13;;;;;;;11.64;80.21;94109.72;5051655;28;20454;-74
2023/03/10 03:58:42;;;;;;;7.80;3.40;;;;;;;11.65;80.33;94104.31;5051506;28;20929;-74
2023/03/10 04:01:09;;;;;;;4.10;3.67;;;;;;;11.66;81.43;94103.31;5051767;28;20516;-73
2023/03/10 04:03:36;;;;;;;3.37;2.70;;;;;;;11.66;81.01;94103.31;5051876;28;20533;-73
2023/03/10 04:06:02;;;;;;;3.97;3.33;;;;;;;11.69;80.01;94112.69;5051542;28;20453;-74
2023/03/10 04:08:31;;;;;;;3.80;3.20;;;;;;;11.71;81.03;94110.75;5032974;28;20437;-74
2023/03/10 04:10:57;;;;;;;3.90;3.20;;;;;;;11.74;82.57;94106.00;5051420;28;20450;-75
2023/03/10 04:13:24;;;;;;;4.27;2.90;;;;;;;11.79;83.19;94102.91;5051780;28;20450;-74
2023/03/10 04:15:55;;;;;;;3.17;2.87;;;;;;;11.90;84.49;94094.78;5055284;28;20441;-74
2023/03/10 04:18:22;;;;;;;3.63;3.30;;;;;;;11.99;82.15;94106.16;5055434;28;20576;-73
2023/03/10 04:20:48;;;;;;;3.83;3.53;;;;;;;11.96;80.82;94094.13;5055101;28;20450;-74
2023/03/10 04:23:16;;;;;;;4.33;3.57;;;;;;;12.02;79.92;94103.19;5036126;28;20436;-74
2023/03/10 04:25:44;;;;;;;3.00;2.80;;;;;;;12.03;78.68;94102.22;5055342;28;20446;-75
2023/03/10 04:28:11;;;;;;;3.60;3.30;;;;;;;12.01;79.37;94091.84;5055153;28;20449;-74
2023/03/10 04:30:41;;;;;;;4.17;3.23;;;;;;;11.96;78.33;94091.50;5055134;28;20800;-74
2023/03/10 04:33:10;;;;;;;3.57;3.17;;;;;;;11.97;78.82;94089.72;5053397;28;20461;-73
2023/03/10 04:35:40;;;;;;;5.17;3.30;;;;;;;11.98;78.99;94091.34;5055364;28;20481;-75
2023/03/10 04:38:07;;;;;;;3.77;3.47;;;;;;;12.01;78.29;94083.13;5055511;28;20571;-73
2023/03/10 04:40:34;;;;;;;4.93;2.77;;;;;;;11.97;78.47;94081.81;5054360;28;20461;-74
2023/03/10 04:43:02;;;;;;;4.20;3.80;;;;;;;11.51;80.75;94078.59;5055166;28;20458;-74
2023/03/10 04:45:29;;;;;;;5.33;4.43;;;;;;;11.51;81.11;94080.41;5055687;28;20520;-74
2023/03/10 04:47:55;;;;;;;4.63;4.23;;;;;;;11.56;81.39;94086.81;5020286;28;20472;-73
2023/03/10 04:50:22;;;;;;;6.63;4.63;;;;;;;11.61;80.44;94084.59;5055542;28;20839;-74
2023/03/10 04:52:49;;;;;;;6.20;5.60;;;;;;;11.52;81.52;94067.09;5054874;28;21268;-73
2023/03/10 04:55:17;;;;;;;6.87;5.90;;;;;;;11.55;81.15;94074.66;5054983;28;20913;-73
2023/03/10 04:57:43;;;;;;;10.63;6.57;;;;;;;11.56;82.25;94081.56;5055328;28;20481;-74
2023/03/10 05:00:12;;;;;;;8.47;5.73;;;;;;;11.56;81.11;94081.56;5055137;28;20453;-72
2023/03/10 05:02:39;;;;;;;7.40;6.43;;;;;;;11.57;82.12;94080.63;5055147;28;20460;-73
2023/03/10 05:05:07;;;;;;;12.10;7.27;;;;;;;11.57;81.54;94080.63;5054094;28;20537;-74
2023/03/10 05:07:34;;;;;;;7.63;6.40;;;;;;;11.57;81.68;94067.47;5002508;28;20438;-73
2023/03/10 05:10:01;;;;;;;11.20;7.27;;;;;;;11.29;83.03;94053.69;5054117;28;20836;-73
2023/03/10 05:12:27;;;;;;;13.67;9.80;;;;;;;11.07;85.27;94057.66;5019103;28;21002;-74
2023/03/10 05:14:54;;;;;;;10.53;7.03;;;;;;;11.18;83.81;94056.56;5035433;28;20456;-74
2023/03/10 05:17:22;;;;;;;8.23;5.87;;;;;;;11.25;83.93;94047.06;5018927;28;20485;-74
2023/03/10 05:19:49;;;;;;;8.87;5.80;;;;;;;11.32;83.81;94049.94;5054240;28;20456;-73
2023/03/10 05:22:16;;;;;;;8.53;5.97;;;;;;;11.35;82.02;94053.06;5054206;28;20445;-73
2023/03/10 05:24:43;;;;;;;8.37;5.43;;;;;;;11.37;82.10;94047.66;5053799;28;20500;-73
2023/03/10 05:27:10;;;;;;;8.60;5.70;;;;;;;11.36;83.20;94051.25;5053433;28;20935;-73
2023/03/10 05:29:38;;;;;;;8.57;5.90;;;;;;;11.34;83.45;94040.91;5053737;28;20772;-74
2023/03/10 05:32:06;;;;;;;9.23;6.53;;;;;;;11.37;83.82;94043.22;5053561;28;20889;-73
2023/03/10 05:34:34;;;;;;;10.50;7.70;;;;;;;11.42;84.80;94042.75;5053652;28;20952;-74
2023/03/10 05:37:01;;;;;;;27.83;13.27;;;;;;;11.49;84.31;94028.00;5053807;28;20841;-74
2023/03/10 05:39:28;;;;;;;22.50;12.23;;;;;;;11.56;84.52;94034.28;5054593;28;20515;-75
2023/03/10 05:41:54;;;;;;;19.70;12.13;;;;;;;11.68;83.15;94037.47;5053694;28;20511;-74
2023/03/10 05:44:21;;;;;;;17.17;10.77;;;;;;;11.77;82.74;94034.72;5034635;28;20916;-74
2023/03/10 05:46:48;;;;;;;20.03;11.83;;;;;;;11.88;82.39;94043.34;5053209;28;20847;-73
2023/03/10 05:49:14;;;;;;;25.40;12.47;;;;;;;11.94;81.45;94043.53;5017940;28;21006;-74
2023/03/10 05:51:43;;;;;;;29.60;15.80;;;;;;;12.03;81.83;94042.56;5034436;28;20507;-74
2023/03/10 05:54:10;;;;;;;35.43;15.93;;;;;;;12.12;82.00;94037.31;5053545;28;20492;-74
2023/03/10 05:56:37;;;;;;;30.77;12.83;;;;;;;12.19;81.24;94030.44;5053057;28;20450;-74
2023/03/10 05:59:05;;;;;;;30.50;13.90;;;;;;;12.22;80.98;94020.44;5034371;28;20500;-74
2023/03/10 06:01:32;;;;;;;23.47;13.67;;;;;;;12.22;80.24;94030.94;5052883;28;20448;-74
2023/03/10 06:03:59;;;;;;;20.90;13.80;;;;;;;12.17;80.10;94030.63;5053310;28;20442;-75
2023/03/10 06:06:26;;;;;;;20.10;12.23;;;;;;;12.25;79.84;94029.81;5053408;28;20453;-74
2023/03/10 06:08:54;;;;;;;28.53;8.23;;;;;;;12.30;79.18;94027.50;5053652;28;20442;-74
2023/03/10 06:11:21;;;;;;;20.00;11.17;;;;;;;12.34;79.50;94027.00;5053109;28;20456;-74
2023/03/10 06:13:48;;;;;;;15.00;10.27;;;;;;;12.39;79.80;94037.03;5053107;28;20588;-73
2023/03/10 06:16:15;;;;;;;9.50;8.50;;;;;;;12.46;79.73;94032.00;5052717;28;20839;-75
2023/03/10 06:18:43;;;;;;;7.73;6.40;;;;;;;12.53;79.53;94031.16;5053356;28;20489;-74
2023/03/10 06:21:12;;;;;;;13.43;5.97;;;;;;;12.63;79.27;94044.16;5053953;28;20797;-75
2023/03/10 06:23:39;;;;;;;10.93;8.63;;;;;;;12.64;78.59;94045.81;5053558;28;20458;-74
2023/03/10 06:26:09;;;;;;;10.23;6.90;;;;;;;12.69;79.57;94038.22;5053571;28;20442;-75
2023/03/10 06:28:38;;;;;;;11.90;5.97;;;;;;;12.75;79.80;94029.69;5053712;28;20464;-75
2023/03/10 06:31:07;;;;;;;13.83;6.07;;;;;;;12.89;84.46;94028.22;5053676;28;20457;-73
2023/03/10 06:33:34;;;;;;;6.50;5.83;;;;;;;13.03;87.20;94031.00;5052726;28;20455;-73
2023/03/10 06:36:02;;;;;;;18.00;7.60;;;;;;;13.03;81.04;94031.00;5053059;28;20453;-73
2023/03/10 06:38:29;;;;;;;20.23;8.70;;;;;;;13.14;81.27;94034.28;5052297;28;20490;-72
2023/03/10 06:40:56;;;;;;;18.57;10.10;;;;;;;13.25;81.40;94028.69;5052863;28;20444;-74
2023/03/10 06:43:24;;;;;;;13.70;9.20;;;;;;;13.20;78.46;94031.84;5050511;28;20463;-73
2023/03/10 06:45:51;;;;;;;10.10;7.07;;;;;;;13.07;77.68;94026.22;5051394;28;20455;-74
2023/03/10 06:48:18;;;;;;;18.97;9.27;;;;;;;12.96;78.88;94040.53;5051642;28;20461;-74
2023/03/10 06:50:46;;;;;;;18.87;7.37;;;;;;;12.98;78.89;94037.75;5052174;28;20449;-73
2023/03/10 06:53:15;;;;;;;7.40;6.03;;;;;;;13.00;79.17;94033.94;5052143;28;20503;-73
2023/03/10 06:55:41;;;;;;;17.27;6.60;;;;;;;12.80;78.26;94034.47;5052111;28;20512;-73
2023/03/10 06:58:08;;;;;;;12.80;6.50;;;;;;;12.80;78.68;94034.47;5049897;28;20551;-73
2023/03/10 07:00:38;;;;;;;10.97;6.20;;;;;;;12.73;78.41;94044.03;5052344;28;20450;-72
2023/03/10 07:03:05;;;;;;;10.97;6.77;;;;;;;12.71;79.24;94029.19;5051687;28;20449;-73
2023/03/10 07:05:32;;;;;;;13.97;6.83;;;;;;;12.81;79.12;94036.94;5051827;28;20473;-72
2023/03/10 07:07:59;;;;;;;16.17;7.80;;;;;;;12.83;79.03;94034.97;5051860;28;20982;-72
2023/03/10 07:10:25;;;;;;;16.27;7.40;;;;;;;12.93;78.37;94046.13;5033956;28;20838;-73
2023/03/10 07:12:57;;;;;;;21.10;7.70;;;;;;;13.03;78.12;94036.28;5016417;28;20487;-72
2023/03/10 07:15:25;;;;;;;17.87;6.67;;;;;;;13.05;77.14;94027.38;5051994;28;20450;-71
2023/03/10 07:17:55;;;;;;;10.23;7.77;;;;;;;13.17;77.94;94026.91;5051784;28;20482;-72
2023/03/10 07:20:22;;;;;;;7.03;5.83;;;;;;;13.24;77.73;94024.41;5052082;28;20466;-72
2023/03/10 07:22:49;;;;;;;6.67;5.37;;;;;;;13.16;79.26;94014.69;5052007;28;20447;-72
2023/03/10 07:25:16;;;;;;;8.83;6.90;;;;;;;13.21;79.66;94012.41;5032716;28;20921;-74
2023/03/10 07:27:42;;;;;;;13.97;8.07;;;;;;;13.39;81.73;94011.38;5051909;28;20443;-72
2023/03/10 07:30:10;;;;;;;8.40;6.73;;;;;;;13.40;79.39;94011.22;5050901;28;20507;-73
2023/03/10 07:32:37;;;;;;;17.80;9.77;;;;;;;13.35;79.24;94005.63;5009161;28;20475;-70
2023/03/10 07:35:06;;;;;;;8.77;5.70;;;;;;;13.42;78.85;94013.69;5052164;28;20478;-73
2023/03/10 07:37:33;;;;;;;5.03;4.43;;;;;;;13.37;78.31;94010.75;4984615;28;20438;-72
2023/03/10 07:40:00;;;;;;;8.90;5.67;;;;;;;13.46;78.82;94021.06;5050686;28;20469;-72
2023/03/10 07:42:27;;;;;;;7.90;5.53;;;;;;;13.51;78.03;94013.47;5050429;28;20446;-72
2023/03/10 07:44:54;;;;;;;8.07;6.77;;;;;;;13.47;77.27;94014.81;5037883;28;20938;-73
2023/03/10 07:47:20;;;;;;;8.07;5.57;;;;;;;13.60;77.34;94006.41;5051371;28;20435;-72
2023/03/10 07:49:47;;;;;;;9.07;5.87;;;;;;;13.78;77.23;94003.50;5015939;28;20519;-72
2023/03/10 07:52:17;;;;;;;4.93;4.53;;;;;;;13.90;76.76;93989.78;5036079;28;20444;-73
2023/03/10 07:54:44;;;;;;;6.00;5.40;;;;;;;14.00;76.17;93980.84;5035732;28;20439;-71
2023/03/10 07:57:11;;;;;;;9.00;6.73;;;;;;;14.11;76.01;93988.34;5036196;28;20544;-72
2023/03/10 07:59:38;;;;;;;8.40;6.63;;;;;;;14.26;75.37;93982.16;5035758;28;20528;-71
2023/03/10 08:02:05;;;;;;;6.60;5.20;;;;;;;14.46;74.69;93972.00;5036003;28;20998;-72
2023/03/10 08:04:31;;;;;;;10.43;5.97;;;;;;;14.58;74.12;93972.41;5035826;28;20441;-71
2023/03/10 08:07:01;;;;;;;10.40;5.27;;;;;;;14.78;73.27;93970.09;5035541;28;20857;-73
2023/03/10 08:09:29;;;;;;;12.27;6.87;;;;;;;14.95;71.75;93971.59;5036016;28;20460;-72
2023/03/10 08:11:56;;;;;;;12.30;7.37;;;;;;;14.98;70.35;93954.56;5035325;28;20888;-72
2023/03/10 08:14:23;;;;;;;16.57;8.30;;;;;;;14.97;71.09;93963.47;5035576;28;20499;-72
2023/03/10 08:16:50;;;;;;;14.63;7.30;;;;;;;14.88;71.26;93953.00;5035376;28;20465;-72
2023/03/10 08:19:17;;;;;;;10.00;8.37;;;;;;;14.99;71.17;93941.16;5035662;28;20579;-73
2023/03/10 08:21:44;;;;;;;14.53;7.30;;;;;;;15.04;70.76;93940.66;5035324;28;20505;-72
2023/03/10 08:24:11;;;;;;;11.80;8.90;;;;;;;15.04;71.00;93927.44;5035296;28;20453;-72
2023/03/10 08:26:39;;;;;;;13.07;7.40;;;;;;;14.95;71.13;93936.44;5035055;28;20446;-73
2023/03/10 08:29:05;;;;;;;10.70;7.13;;;;;;;14.84;71.27;93929.78;5035485;28;20450;-72
2023/03/10 08:31:32;;;;;;;12.67;6.47;;;;;;;14.89;72.06;93916.84;5035537;28;20446;-72
2023/03/10 08:33:59;;;;;;;12.33;5.23;;;;;;;14.99;72.11;93911.28;5035293;28;20475;-71
2023/03/10 08:36:28;;;;;;;10.17;5.53;;;;;;;15.03;71.22;93904.63;5035307;28;20451;-69
2023/03/10 08:38:56;;;;;;;14.43;4.87;;;;;;;15.07;70.54;93901.47;5034879;28;20489;-72
2023/03/10 08:41:24;;;;;;;6.60;3.70;;;;;;;15.26;70.61;93900.09;5034937;28;20451;-72
2023/03/10 08:43:55;;;;;;;4.57;4.10;;;;;;;15.44;69.62;93892.63;5035329;28;20448;-71
2023/03/10 08:46:24;;;;;;;4.70;4.00;;;;;;;15.72;68.66;93891.97;5035218;28;20533;-72
2023/03/10 08:48:51;;;;;;;5.30;4.17;;;;;;;16.09;67.49;93897.06;5034770;28;20535;-72
2023/03/10 08:51:19;;;;;;;4.50;4.10;;;;;;;16.41;65.89;93894.91;5034895;28;20441;-72
2023/03/10 08:53:47;;;;;;;6.27;4.80;;;;;;;16.64;64.67;93894.72;5034670;28;20446;-72
2023/03/10 08:56:15;;;;;;;7.63;3.90;;;;;;;16.93;63.93;93880.50;5034940;28;20936;-72
2023/03/10 08:58:42;;;;;;;4.57;3.27;;;;;;;17.19;63.53;93879.84;5034660;28;20484;-72
2023/03/10 09:01:10;;;;;;;8.50;4.50;;;;;;;17.25;61.99;93873.75;5033512;28;20444;-73
2023/03/10 09:03:38;;;;;;;6.57;4.27;;;;;;;17.27;61.74;93864.59;5034421;28;20945;-72
2023/03/10 09:06:06;;;;;;;4.63;4.23;;;;;;;17.45;65.49;93860.63;5034241;28;20508;-73
2023/03/10 09:08:33;;;;;;;9.67;4.77;;;;;;;17.53;63.96;93857.78;5034327;28;20507;-71
2023/03/10 09:11:00;;;;;;;8.63;4.67;;;;;;;17.45;62.30;93850.81;5034454;28;20449;-72
2023/03/10 09:13:26;;;;;;;4.60;4.20;;;;;;;17.61;62.58;93862.91;5034368;28;20454;-73
2023/03/10 09:15:53;;;;;;;6.20;4.37;;;;;;;17.74;60.23;93851.59;5034433;28;20452;-72
2023/03/10 09:18:21;;;;;;;7.30;5.37;;;;;;;17.75;60.35;93850.56;5034152;28;20485;-73
2023/03/10 09:20:48;;;;;;;7.73;5.10;;;;;;;17.86;61.69;93850.78;5033882;28;20536;-71
2023/03/10 09:23:16;;;;;;;6.60;5.20;;;;;;;17.80;60.33;93853.44;5034466;28;20457;-72
2023/03/10 09:25:43;;;;;;;7.03;4.87;;;;;;;17.77;60.37;93852.00;5033877;28;21147;-72
2023/03/10 09:28:11;;;;;;;7.53;5.40;;;;;;;17.69;60.09;93838.91;5034177;28;20456;-70
2023/03/10 09:30:41;;;;;;;9.50;6.27;;;;;;;17.60;60.14;93832.91;5034021;28;20538;-72
2023/03/10 09:33:14;;;;;;;10.10;4.50;;;;;;;17.66;61.57;93833.97;5034347;28;20964;-72
2023/03/10 09:35:42;;;;;;;10.13;4.80;;;;;;;17.62;61.62;93830.06;5034110;28;20481;-72
2023/03/10 09:38:09;;;;;;;12.67;5.47;;;;;;;17.59;61.26;93828.63;5033932;28;20866;-72
2023/03/10 09:40:39;;;;;;;5.70;4.87;;;;;;;17.55;61.46;93834.53;5034212;28;20498;-73
2023/03/10 09:43:07;;;;;;;8.40;5.37;;;;;;;17.45;61.76;93826.13;5033868;28;20484;-73
2023/03/10 09:45:43;;;;;;;13.37;6.73;;;;;;;17.38;62.71;93828.75;5034178;28;20931;-72
2023/03/10 09:48:32;;;;;;;9.60;6.77;;;;;;;17.27;63.39;93822.16;5033830;28;20934;-73
2023/03/10 09:51:04;;;;;;;7.50;5.00;;;;;;;17.19;63.26;93827.66;5033395;28;20995;-72
2023/03/10 09:53:54;;;;;;;6.57;5.27;;;;;;;17.10;63.62;93820.88;5033742;28;20512;-72
2023/03/10 09:56:27;;;;;;;7.70;4.43;;;;;;;17.09;63.26;93818.44;5015196;28;20508;-73
2023/03/10 09:58:58;;;;;;;5.33;4.77;;;;;;;17.06;63.39;93814.34;5033374;28;20576;-73
2023/03/10 10:01:28;;;;;;;6.37;5.23;;;;;;;17.01;63.67;93816.72;5033259;28;20855;-73
2023/03/10 10:03:57;;;;;;;6.03;5.40;;;;;;;16.98;63.32;93806.53;5033491;28;20448;-72
2023/03/10 10:06:28;;;;;;;12.33;5.80;;;;;;;16.92;66.45;93791.41;5033612;28;20439;-73
2023/03/10 10:08:58;;;;;;;8.57;5.40;;;;;;;16.86;68.50;93786.91;5033836;28;20448;-72
2023/03/10 10:11:25;;;;;;;8.47;5.73;;;;;;;16.76;69.40;93786.41;5033595;28;20453;-73
2023/03/10 10:14:02;;;;;;;19.93;8.73;;;;;;;16.69;69.15;93791.69;5032962;28;20445;-73
2023/03/10 10:16:37;;;;;;;31.70;16.30;;;;;;;16.67;70.06;93786.56;5033182;28;20440;-72
2023/03/10 10:19:13;;;;;;;19.13;11.87;;;;;;;16.71;71.84;93781.69;5032998;28;20538;-72
2023/03/10 10:21:48;;;;;;;13.60;8.13;;;;;;;16.69;71.97;93779.25;4952723;28;20959;-72
2023/03/10 10:24:16;;;;;;;14.60;8.77;;;;;;;16.61;70.33;93779.38;5033394;28;20819;-71
2023/03/10 10:26:43;;;;;;;14.63;9.80;;;;;;;16.49;70.03;93780.94;5032645;28;20453;-72
2023/03/10 10:29:15;;;;;;;13.83;8.70;;;;;;;16.45;71.13;93774.38;5032657;28;20449;-72
2023/03/10 10:31:43;;;;;;;17.30;11.00;;;;;;;16.43;73.29;93774.56;5014522;28;20441;-72
2023/03/10 10:34:19;;;;;;;14.97;8.37;;;;;;;16.47;73.86;93777.63;5032960;28;20491;-72
2023/03/10 10:36:53;;;;;;;15.83;9.13;;;;;;;16.50;74.21;93779.09;5014089;28;20507;-70
2023/03/10 10:39:26;;;;;;;13.97;8.70;;;;;;;16.48;74.28;93778.44;5032744;28;20491;-72
2023/03/10 10:41:54;;;;;;;13.00;9.07;;;;;;;16.46;74.46;93768.06;5014031;28;20444;-72
2023/03/10 10:44:21;;;;;;;11.57;7.67;;;;;;;16.41;74.85;93781.06;5032879;28;20431;-71
2023/03/10 10:46:53;;;;;;;16.83;6.33;;;;;;;16.30;77.27;93792.19;5032622;28;20528;-72
2023/03/10 10:49:23;;;;;;;15.00;7.17;;;;;;;16.25;76.54;93791.94;5032683;28;20454;-72
2023/03/10 10:52:00;;;;;;;8.63;5.77;;;;;;;16.14;79.80;93800.38;5032729;28;20531;-72
2023/03/10 10:54:29;;;;;;;8.67;6.33;;;;;;;16.07;80.97;93781.81;5032307;28;20456;-72
2023/03/10 10:56:58;;;;;;;11.87;5.80;;;;;;;16.01;82.13;93786.03;5032661;28;20447;-72
2023/03/10 10:59:29;;;;;;;14.63;7.50;;;;;;;15.89;84.16;93778.78;5032887;28;20581;-72
2023/03/10 11:01:57;;;;;;;10.53;7.50;;;;;;;15.83;84.29;93777.72;5032440;28;20544;-73
2023/03/10 11:04:27;;;;;;;13.63;6.50;;;;;;;15.79;86.37;93779.13;5032659;28;20452;-73
2023/03/10 11:07:10;;;;;;;8.57;6.93;;;;;;;15.68;86.08;93763.75;5032493;28;20452;-73
2023/03/10 11:09:37;;;;;;;10.47;8.00;;;;;;;15.63;86.54;93768.78;5032234;28;20546;-72
2023/03/10 11:12:10;;;;;;;15.13;8.30;;;;;;;15.65;89.07;93761.50;5032036;28;20452;-72
2023/03/10 11:14:51;;;;;;;15.60;9.33;;;;;;;15.57;90.80;93753.63;5032276;28;20517;-72
2023/03/10 11:17:26;;;;;;;22.40;13.10;;;;;;;15.30;93.55;93748.06;5032109;28;20485;-73
2023/03/10 11:20:00;;;;;;;17.67;12.13;;;;;;;15.21;94.66;93740.44;5032409;28;20973;-72
2023/03/10 11:22:37;;;;;;;35.60;15.27;;;;;;;15.01;99.54;93729.63;5032269;28;20442;-72
2023/03/10 11:25:14;;;;;;;21.20;15.50;;;;;;;14.57;100.00;93699.66;5031551;28;20461;-73
2023/03/10 11:27:48;;;;;;;13.83;9.00;;;;;;;14.59;100.00;93691.56;5032087;28;20458;-72
2023/03/10 11:30:18;;;;;;;5.23;4.73;;;;;;;14.39;96.67;93700.97;5032638;28;20473;-71
2023/03/10 11:33:06;;;;;;;9.70;4.90;;;;;;;14.55;96.54;93695.56;5032051;28;20532;-72
2023/03/10 11:35:42;;;;;;;5.60;5.00;;;;;;;14.62;95.56;93688.53;5031826;28;20845;-73